Time;durP1;ratioP1;P1;durP2;ratioP2;P2;SDS_P1;SDS_P2;PMS_P1;PMS_P2;Temp;Humidity;BMP_temperature;BMP_pressure;BME280_temperature;BME280_humidity;BME280_pressure;Samples;Min_cycle;Max_cycle;Signal;HPM_P1;HPM_P2
2022/06/26 00:00:46;;;;;;;18.23;13.02;;;20.40;99.90;;;20.82;81.61;101111.63;5113307;28;20513;-66
2022/06/26 00:03:14;;;;;;;16.38;12.65;;;20.40;99.90;;;20.85;81.43;101114.22;5113277;28;20517;-66
2022/06/26 00:05:43;;;;;;;14.90;12.25;;;20.40;99.90;;;20.81;81.13;101108.06;5113300;28;20130;-66
2022/06/26 00:08:11;;;;;;;20.23;12.07;;;20.40;99.90;;;20.78;81.14;101104.63;5113793;28;20027;-66
2022/06/26 00:10:41;;;;;;;20.70;12.60;;;20.30;99.90;;;20.78;80.94;101118.09;5113187;28;20508;-66
2022/06/26 00:13:09;;;;;;;16.20;12.80;;;20.30;99.90;;;20.72;80.58;101126.41;5113294;28;20063;-66
2022/06/26 00:15:39;;;;;;;19.60;13.15;;;20.30;99.90;;;20.58;80.51;101127.88;5116767;28;20488;-66
2022/06/26 00:18:08;;;;;;;17.50;13.35;;;20.20;99.90;;;20.56;80.52;101120.78;5117967;28;20067;-66
2022/06/26 00:20:38;;;;;;;21.20;16.30;;;20.20;99.90;;;20.52;80.30;101124.53;5099291;28;20059;-66
2022/06/26 00:23:06;;;;;;;19.85;16.40;;;20.10;99.90;;;20.51;80.23;101129.06;5117325;28;20557;-66
2022/06/26 00:25:34;;;;;;;25.08;17.67;;;20.10;99.90;;;20.43;80.05;101123.13;5117461;28;20031;-66
2022/06/26 00:28:03;;;;;;;28.90;20.88;;;20.00;99.90;;;20.40;80.13;101128.59;5117285;28;20118;-66
2022/06/26 00:30:31;;;;;;;25.63;21.70;;;20.00;99.90;;;20.33;80.32;101135.19;5099185;28;20122;-66
2022/06/26 00:33:01;;;;;;;28.40;20.77;;;19.90;99.90;;;20.25;80.67;101131.91;5117395;28;20040;-66
2022/06/26 00:35:30;;;;;;;27.98;23.30;;;19.90;99.90;;;20.25;80.76;101125.66;5117381;28;20093;-66
2022/06/26 00:37:58;;;;;;;30.85;23.17;;;19.90;99.90;;;20.24;80.80;101129.28;5099062;28;20058;-66
2022/06/26 00:40:26;;;;;;;29.02;23.23;;;19.80;99.90;;;20.11;80.83;101120.78;5098913;28;20392;-66
2022/06/26 00:42:55;;;;;;;26.58;21.85;;;19.80;99.90;;;20.30;80.92;101140.69;5117175;28;20044;-66
2022/06/26 00:45:23;;;;;;;26.17;22.85;;;19.80;99.90;;;20.29;80.62;101128.16;5098760;28;20515;-66
2022/06/26 00:47:52;;;;;;;26.17;22.02;;;19.90;99.90;;;20.35;80.67;101127.94;5117059;28;20096;-66
2022/06/26 00:50:21;;;;;;;25.27;21.23;;;19.80;99.90;;;20.34;80.75;101123.47;5117272;28;20123;-66
2022/06/26 00:52:51;;;;;;;25.38;21.45;;;19.90;99.90;;;20.32;80.54;101117.31;5098436;28;20071;-67
2022/06/26 00:55:19;;;;;;;25.95;21.83;;;19.90;99.90;;;20.37;80.48;101122.47;5116989;28;20126;-66
2022/06/26 00:57:48;;;;;;;28.50;21.98;;;19.90;99.90;;;20.36;80.22;101129.66;5117105;28;20074;-66
2022/06/26 01:00:20;;;;;;;23.48;18.88;;;19.90;99.90;;;20.31;80.25;101120.94;5116912;28;20036;-66
2022/06/26 01:02:48;;;;;;;22.35;17.73;;;19.90;99.90;;;20.28;80.06;101123.75;5116728;28;20044;-66
2022/06/26 01:05:17;;;;;;;21.35;16.95;;;19.90;99.90;;;20.29;79.81;101117.41;5098559;28;20054;-66
2022/06/26 01:07:47;;;;;;;24.77;17.13;;;19.90;99.90;;;20.30;79.49;101112.94;5116832;28;20047;-66
2022/06/26 01:10:15;;;;;;;20.35;16.45;;;19.80;99.90;;;20.27;79.24;101118.41;5098613;28;20061;-66
2022/06/26 01:12:45;;;;;;;25.13;16.05;;;19.90;99.90;;;20.25;79.23;101117.59;5098128;28;20101;-66
2022/06/26 01:15:14;;;;;;;20.45;15.45;;;19.80;99.90;;;20.23;79.25;101116.78;5116737;28;20101;-66
2022/06/26 01:17:43;;;;;;;20.33;14.70;;;19.80;99.90;;;20.21;79.16;101124.91;5098398;28;20085;-66
2022/06/26 01:20:15;;;;;;;19.13;14.57;;;19.80;99.90;;;20.17;79.10;101130.47;5098337;28;20051;-66
2022/06/26 01:22:44;;;;;;;22.60;14.82;;;19.80;99.90;;;20.11;79.16;101128.84;5098326;28;20047;-66
2022/06/26 01:25:13;;;;;;;19.37;15.73;;;19.70;99.90;;;20.04;79.24;101124.69;5116316;28;20485;-66
2022/06/26 01:27:43;;;;;;;21.83;16.75;;;19.60;99.90;;;19.96;79.48;101126.78;5098128;28;20040;-66
2022/06/26 01:30:15;;;;;;;23.25;16.88;;;19.60;99.90;;;19.91;79.68;101131.47;5098208;28;20146;-66
2022/06/26 01:32:44;;;;;;;22.70;17.27;;;19.50;99.90;;;19.63;79.75;101110.16;5098043;28;20466;-66
2022/06/26 01:35:12;;;;;;;19.75;16.52;;;19.40;99.90;;;19.54;80.19;101115.88;5116601;28;20111;-66
2022/06/26 01:37:52;;;;;;;26.05;18.45;;;19.40;99.90;;;19.62;80.24;101137.94;5097970;28;20443;-66
2022/06/26 01:40:20;;;;;;;25.67;18.70;;;19.20;99.90;;;19.58;80.34;101138.97;5097909;28;20048;-66
2022/06/26 01:42:49;;;;;;;24.85;18.88;;;19.20;99.90;;;19.52;80.40;101133.84;5116089;28;20782;-66
2022/06/26 01:45:17;;;;;;;26.77;18.73;;;19.10;99.90;;;19.37;80.73;101134.41;5097732;28;20074;-66
2022/06/26 01:47:46;;;;;;;27.35;18.58;;;19.00;99.90;;;19.41;80.95;101132.47;5097568;28;20043;-66
2022/06/26 01:50:14;;;;;;;29.10;18.35;;;19.00;99.90;;;19.37;81.15;101141.56;5097743;28;20044;-66
2022/06/26 01:52:43;;;;;;;21.60;17.27;;;19.00;99.90;;;19.41;80.98;101140.53;5097964;28;20032;-67
2022/06/26 01:55:13;;;;;;;24.98;18.10;;;19.00;99.90;;;19.35;81.03;101136.28;5097885;28;20051;-66
2022/06/26 01:57:42;;;;;;;23.55;16.98;;;18.90;99.90;;;19.35;81.02;101130.91;5097741;28;20039;-66
2022/06/26 02:00:22;;;;;;;23.13;17.85;;;19.00;99.90;;;19.34;81.18;101130.94;5115894;28;20044;-66
2022/06/26 02:02:51;;;;;;;25.98;17.45;;;18.90;99.90;;;19.31;81.22;101129.22;5097535;28;20051;-66
2022/06/26 02:05:19;;;;;;;21.55;16.00;;;18.90;99.90;;;19.29;81.17;101127.50;5097399;28;20043;-66
2022/06/26 02:07:48;;;;;;;21.40;15.88;;;18.90;99.90;;;19.30;81.17;101131.97;5115394;28;20040;-66
2022/06/26 02:15:55;;;;;;;21.05;13.35;;;18.80;99.90;;;19.23;81.34;101133.09;5097555;28;20094;-66
2022/06/26 02:18:25;;;;;;;16.05;13.88;;;18.80;99.90;;;19.25;81.26;101125.88;5097164;28;20040;-66
2022/06/26 02:20:54;;;;;;;20.10;14.77;;;18.80;99.90;;;19.25;81.38;101125.88;5115129;28;20046;-66
2022/06/26 02:23:22;;;;;;;20.58;12.90;;;18.80;99.90;;;19.28;81.38;101109.69;5115237;28;20079;-66
2022/06/26 02:25:54;;;;;;;20.20;14.30;;;18.80;99.90;;;19.29;81.25;101122.16;5097105;28;20071;-66
2022/06/26 02:28:22;;;;;;;21.13;13.65;;;18.90;99.90;;;19.24;81.44;101122.31;5115335;28;20048;-67
2022/06/26 02:30:51;;;;;;;20.85;13.32;;;18.80;99.90;;;19.25;81.43;101121.41;5097003;28;20036;-68
2022/06/26 02:33:22;;;;;;;18.02;13.45;;;18.90;99.90;;;19.23;81.29;101122.38;5096933;28;20048;-67
2022/06/26 02:35:52;;;;;;;19.23;12.80;;;18.80;99.90;;;19.22;81.29;101120.63;5097072;28;20052;-66
2022/06/26 02:38:20;;;;;;;22.08;12.50;;;18.80;99.90;;;19.17;81.36;101109.16;5096239;28;20092;-67
2022/06/26 02:40:50;;;;;;;19.80;12.73;;;18.80;99.90;;;19.24;81.08;101113.41;5096781;28;20040;-66
2022/06/26 02:43:23;;;;;;;20.23;13.32;;;18.80;99.90;;;19.24;81.05;101110.72;5096815;28;20051;-67
2022/06/26 02:45:51;;;;;;;24.80;14.10;;;18.80;99.90;;;19.23;81.27;101122.38;5114690;28;20039;-68
2022/06/26 02:48:21;;;;;;;19.15;13.38;;;18.80;99.90;;;19.24;81.14;101110.72;5096674;28;20097;-67
2022/06/26 02:50:49;;;;;;;22.92;14.25;;;18.80;99.90;;;19.23;80.99;101115.19;5114899;28;20442;-67
2022/06/26 02:53:18;;;;;;;23.10;13.30;;;18.80;99.90;;;19.26;80.88;101117.75;5096573;28;20130;-67
2022/06/26 02:55:46;;;;;;;23.85;13.63;;;18.80;99.90;;;19.22;80.91;101128.69;5096247;28;20052;-67
2022/06/26 02:58:17;;;;;;;21.17;12.95;;;18.80;99.90;;;19.16;80.86;101100.28;5096466;28;20082;-66
2022/06/26 03:00:55;;;;;;;18.23;13.77;;;18.90;99.90;;;19.14;80.84;101126.28;5096439;28;20573;-66
2022/06/26 03:03:24;;;;;;;;;;;18.80;99.90;;;19.10;81.06;101129.09;5096838;28;20046;-66
2022/06/26 03:05:53;;;;;;;23.65;13.13;;;18.80;99.90;;;19.05;81.18;101139.13;5096250;28;20022;-66
2022/06/26 03:08:24;;;;;;;21.33;14.50;;;18.70;99.90;;;19.05;81.53;101137.31;5096325;28;20047;-67
2022/06/26 03:10:53;;;;;;;20.00;13.30;;;18.60;99.90;;;18.98;81.57;101130.41;5096311;28;20048;-67
2022/06/26 03:13:21;;;;;;;19.45;13.95;;;18.60;99.90;;;18.98;81.84;101141.13;5096180;28;20039;-66
2022/06/26 03:15:50;;;;;;;21.48;13.40;;;18.60;99.90;;;19.00;81.82;101146.44;5114424;28;20044;-66
2022/06/26 03:18:20;;;;;;;25.20;14.23;;;18.50;99.90;;;18.99;81.86;101153.59;5096090;28;20043;-66
2022/06/26 03:20:49;;;;;;;22.97;13.77;;;18.60;99.90;;;18.96;82.31;101139.44;5096127;28;20047;-66
2022/06/26 03:23:17;;;;;;;24.02;12.65;;;18.50;99.90;;;18.93;82.16;101146.66;5096113;28;20300;-66
2022/06/26 03:25:45;;;;;;;22.50;13.63;;;18.50;99.90;;;18.92;82.36;101142.22;5096081;28;20061;-66
2022/06/26 03:28:15;;;;;;;20.85;14.57;;;18.50;99.90;;;18.95;82.36;101146.59;5096114;28;20401;-67
2022/06/26 03:30:49;;;;;;;24.58;13.90;;;18.40;99.90;;;18.92;82.47;101150.28;5095643;28;20050;-66
2022/06/26 03:33:17;;;;;;;18.95;12.43;;;18.50;99.90;;;18.88;82.44;101151.31;5095936;28;20047;-66
2022/06/26 03:35:47;;;;;;;18.38;13.02;;;18.50;99.90;;;18.76;82.61;101151.69;5114103;28;20036;-66
2022/06/26 03:38:15;;;;;;;19.30;12.35;;;18.40;99.90;;;18.67;82.69;101149.34;5113772;28;20082;-66
2022/06/26 03:40:46;;;;;;;19.55;13.07;;;18.30;99.90;;;18.63;83.08;101158.41;5095520;28;20101;-66
2022/06/26 03:43:20;;;;;;;21.63;13.00;;;18.20;99.90;;;18.62;83.93;101151.28;5095710;28;20040;-66
2022/06/26 03:45:49;;;;;;;19.17;13.27;;;18.10;99.90;;;18.76;84.24;101157.06;5095535;28;20058;-66
2022/06/26 03:48:18;;;;;;;18.55;12.98;;;18.20;99.90;;;18.62;84.42;101167.34;5095698;28;20126;-66
2022/06/26 03:50:48;;;;;;;18.10;11.98;;;18.20;99.90;;;18.48;84.84;101166.94;5095830;28;20063;-67
2022/06/26 03:53:17;;;;;;;18.40;12.23;;;18.00;99.90;;;18.39;85.00;101161.81;5113913;28;20043;-66
2022/06/26 03:55:46;;;;;;;16.63;11.30;;;17.90;99.90;;;18.45;85.26;101160.78;5095537;28;20112;-66
2022/06/26 03:58:14;;;;;;;14.65;10.93;;;18.00;99.90;;;18.50;85.16;101165.09;5095522;28;20043;-66
2022/06/26 04:00:43;;;;;;;15.50;11.27;;;18.00;99.90;;;18.65;85.13;101177.09;5095487;28;20362;-66
2022/06/26 04:03:11;;;;;;;15.95;11.27;;;18.20;99.90;;;18.72;84.79;101171.50;5095443;28;20048;-66
2022/06/26 04:05:40;;;;;;;16.58;10.95;;;18.30;99.90;;;18.66;84.76;101166.34;5113952;28;20071;-66
2022/06/26 04:08:10;;;;;;;18.45;11.27;;;18.20;99.90;;;18.68;84.70;101180.56;5113618;28;20053;-66
2022/06/26 04:10:45;;;;;;;18.90;10.95;;;18.20;99.90;;;18.69;84.01;101171.59;5095775;28;20092;-66
2022/06/26 04:13:49;;;;;;;19.38;10.77;;;18.40;99.90;;;18.59;84.12;101175.50;5094036;28;20505;-66
2022/06/26 04:16:18;;;;;;;16.75;10.80;;;18.20;99.90;;;18.52;84.95;101179.31;5095342;28;20493;-66
2022/06/26 04:18:49;;;;;;;15.95;10.27;;;18.10;99.90;;;18.73;84.71;101192.03;5095459;28;20036;-66
2022/06/26 04:21:18;;;;;;;16.05;10.43;;;18.20;99.90;;;18.73;84.07;101199.19;5095224;28;20050;-66
2022/06/26 04:23:49;;;;;;;14.73;9.32;;;18.30;99.90;;;18.83;83.68;101209.53;5095141;28;20060;-66
2022/06/26 04:26:19;;;;;;;16.05;9.60;;;18.40;99.90;;;18.86;83.73;101211.25;5095218;28;20043;-66
2022/06/26 04:28:47;;;;;;;13.23;8.90;;;18.50;99.90;;;18.99;83.65;101217.94;5095281;28;20048;-66
2022/06/26 04:31:16;;;;;;;10.32;8.35;;;18.50;99.90;;;19.07;83.25;101217.69;5095229;28;20035;-66
2022/06/26 04:33:50;;;;;;;14.75;8.68;;;18.60;99.90;;;19.07;83.02;101215.00;5095479;28;20062;-66
2022/06/26 04:36:19;;;;;;;11.77;7.50;;;18.60;99.90;;;19.11;82.92;101213.97;5113186;28;20421;-66
2022/06/26 04:38:48;;;;;;;10.77;7.80;;;18.70;99.90;;;19.12;82.85;101218.44;5095175;28;20096;-66
2022/06/26 04:44:05;;;;;;;10.70;6.90;;;18.70;99.90;;;19.12;82.10;101211.28;5113392;28;20040;-66
2022/06/26 04:46:34;;;;;;;9.52;6.22;;;18.70;99.90;;;19.16;82.01;101225.44;5113395;28;20071;-66
2022/06/26 04:49:03;;;;;;;10.93;7.07;;;18.80;99.90;;;19.17;82.45;101243.28;5095115;28;20068;-66
2022/06/26 04:51:34;;;;;;;11.55;6.80;;;18.70;99.90;;;19.17;82.10;101251.31;5111983;28;20047;-66
2022/06/26 04:54:06;;;;;;;8.82;6.13;;;18.80;99.90;;;19.06;82.08;101235.59;5095291;28;20048;-66
2022/06/26 04:56:38;;;;;;;8.88;6.47;;;18.80;99.90;;;19.19;81.97;101252.16;5095066;28;20450;-66
2022/06/26 04:59:07;;;;;;;8.23;6.70;;;18.80;99.90;;;19.22;81.82;101244.88;5094970;28;20054;-66
2022/06/26 05:01:37;;;;;;;11.52;6.72;;;18.80;99.90;;;19.21;82.06;101248.50;5097998;28;20039;-66
2022/06/26 05:04:26;;;;;;;7.90;6.97;;;18.80;99.90;;;19.33;82.20;101245.44;5098778;28;20044;-66
2022/06/26 05:07:21;;;;;;;12.48;7.15;;;18.90;99.90;;;19.37;82.52;101256.94;5098750;28;20301;-66
2022/06/26 05:09:51;;;;;;;11.52;6.82;;;19.00;99.90;;;19.39;82.39;101242.56;5098562;28;20051;-66
2022/06/26 05:12:19;;;;;;;9.82;6.82;;;19.00;99.90;;;19.41;82.34;101254.09;5098573;28;20047;-66
2022/06/26 05:15:07;;;;;;;9.77;6.78;;;19.00;99.90;;;19.39;82.18;101263.13;5116523;28;20502;-66
2022/06/26 05:17:43;;;;;;;7.35;6.43;;;19.10;99.90;;;19.54;82.28;101257.22;5098610;28;20044;-66
2022/06/26 05:20:16;;;;;;;8.88;6.47;;;19.20;99.90;;;19.63;81.99;101264.94;5098414;28;20075;-66
2022/06/26 05:22:44;;;;;;;9.68;6.75;;;19.30;99.90;;;19.64;81.43;101272.97;5098246;28;20067;-66
2022/06/26 05:25:17;;;;;;;10.30;6.75;;;19.30;99.90;;;19.67;81.06;101271.97;5098218;28;20138;-66
2022/06/26 05:27:47;;;;;;;10.25;6.57;;;19.30;99.90;;;19.64;80.10;101264.91;5098087;28;20048;-66
2022/06/26 05:30:15;;;;;;;7.68;6.00;;;19.30;99.90;;;19.74;80.14;101262.78;5098092;28;20389;-66
2022/06/26 05:32:44;;;;;;;8.40;6.65;;;19.40;99.90;;;19.76;80.20;101271.66;5098088;28;20035;-65
2022/06/26 05:35:22;;;;;;;8.32;6.72;;;19.40;99.90;;;19.92;80.36;101255.88;5097987;28;20135;-65
2022/06/26 05:37:51;;;;;;;9.90;6.75;;;19.50;99.90;;;20.00;79.91;101265.38;5097939;28;20054;-66
2022/06/26 05:40:20;;;;;;;8.23;6.15;;;19.60;99.90;;;19.97;78.76;101272.69;5097935;28;20564;-66
2022/06/26 05:42:50;;;;;;;7.95;6.32;;;19.60;99.90;;;19.93;77.82;101269.25;5097840;28;20051;-66
2022/06/26 05:45:19;;;;;;;8.05;6.40;;;19.60;99.90;;;19.92;77.73;101278.22;5097998;28;20083;-66
2022/06/26 05:48:17;;;;;;;7.65;5.88;;;19.60;99.90;;;19.99;77.71;101284.25;5101976;28;20412;-66
2022/06/26 05:51:10;;;;;;;11.32;6.40;;;19.60;99.90;;;19.89;77.26;101289.06;5097858;28;20138;-66
2022/06/26 05:54:00;;;;;;;9.10;6.33;;;19.60;99.90;;;19.99;77.62;101295.00;5097382;28;20138;-66
2022/06/26 05:56:53;;;;;;;10.70;6.72;;;19.60;99.90;;;19.96;77.81;101297.75;5099272;28;20048;-66
2022/06/26 05:59:35;;;;;;;8.15;6.05;;;19.60;99.90;;;20.05;77.80;101302.81;5097662;28;20043;-66
2022/06/26 06:02:23;;;;;;;9.52;6.57;;;19.60;99.90;;;19.98;77.28;101302.16;5115295;28;20051;-66
2022/06/26 06:04:52;;;;;;;11.25;6.80;;;19.60;99.90;;;19.96;77.21;101298.66;5097739;28;20047;-66
2022/06/26 06:07:21;;;;;;;10.60;6.53;;;19.60;99.90;;;20.00;77.32;101294.94;5097270;28;20063;-66
2022/06/26 06:09:50;;;;;;;10.07;6.40;;;19.60;99.90;;;20.07;77.37;101300.97;5097429;28;20048;-66
2022/06/26 06:12:20;;;;;;;11.93;6.88;;;19.60;99.90;;;20.00;77.58;101310.16;5096564;28;20039;-66
2022/06/26 06:14:48;;;;;;;11.07;6.33;;;19.60;99.90;;;19.92;77.38;101288.09;5115619;28;20039;-66
2022/06/26 06:20:04;;;;;;;6.90;5.82;;;19.50;99.90;;;19.99;76.74;101297.69;5097205;28;20043;-66
2022/06/26 06:22:37;;;;;;;10.38;6.25;;;19.60;99.90;;;20.04;77.00;101311.81;5097203;28;20146;-66
2022/06/26 06:25:07;;;;;;;12.73;6.35;;;19.60;99.90;;;20.09;77.46;101318.75;5096670;28;20075;-67
2022/06/26 06:27:45;;;;;;;7.38;6.05;;;19.70;99.90;;;20.18;77.55;101337.28;5115010;28;20039;-66
2022/06/26 06:30:18;;;;;;;9.88;6.60;;;19.80;99.90;;;20.17;77.13;101350.75;5097020;28;20069;-66
2022/06/26 06:32:48;;;;;;;8.65;5.85;;;19.80;99.90;;;20.14;76.71;101349.03;5096972;28;20047;-67
2022/06/26 06:35:40;;;;;;;8.13;6.43;;;19.70;99.90;;;20.17;76.49;101354.28;5106553;28;20492;-66
2022/06/26 06:38:10;;;;;;;7.43;5.80;;;19.80;99.90;;;20.16;76.00;101367.78;5096774;28;20124;-66
2022/06/26 06:40:40;;;;;;;8.85;6.18;;;19.80;99.90;;;20.23;76.93;101382.78;5115071;28;20100;-66
2022/06/26 06:43:12;;;;;;;7.65;6.18;;;19.80;99.90;;;20.23;76.38;101386.34;5114683;28;20513;-66
2022/06/26 06:46:09;;;;;;;10.40;6.40;;;19.80;99.90;;;20.26;76.10;101364.75;5114584;28;20043;-66
2022/06/26 06:48:40;;;;;;;;;;;19.90;99.90;;;20.27;75.21;101371.88;5096918;28;20058;-66
2022/06/26 06:51:31;;;;;;;;;;;19.90;99.90;;;20.30;74.57;101384.31;5109018;28;19924;-66
2022/06/26 06:53:59;;;;;;;9.55;6.28;;;20.00;99.90;;;20.35;75.17;101390.41;5114652;28;19923;-66
2022/06/26 06:56:30;;;;;;;8.32;6.18;;;20.00;99.90;;;20.40;74.83;101389.28;5096240;28;20074;-66
2022/06/26 06:59:01;;;;;;;;;;;20.00;99.90;;;20.46;74.70;101393.59;5096657;28;20056;-66
2022/06/26 07:01:30;;;;;;;8.50;5.65;;;20.10;99.90;;;20.48;74.47;101397.97;5096378;28;19966;-66
2022/06/26 07:04:00;;;;;;;9.80;6.30;;;20.10;99.90;;;20.50;73.76;101400.59;5096352;28;20139;-66
2022/06/26 07:06:28;;;;;;;8.27;5.63;;;20.10;99.90;;;20.54;74.01;101403.13;5096006;28;20071;-66
2022/06/26 07:09:00;;;;;;;7.78;5.70;;;20.20;99.90;;;20.61;74.14;101393.03;5095925;28;20071;-66
2022/06/26 07:11:31;;;;;;;10.05;5.90;;;20.20;99.90;;;20.63;74.21;101408.13;5096328;28;20097;-66
2022/06/26 07:13:59;;;;;;;8.90;5.97;;;20.30;99.90;;;20.65;73.72;101397.34;5096171;28;20093;-66
2022/06/26 07:16:29;;;;;;;10.77;6.20;;;20.30;99.90;;;20.60;73.78;101385.88;5096064;28;20040;-66
2022/06/26 07:18:57;;;;;;;10.35;5.72;;;20.30;99.90;;;20.55;72.80;101361.88;5095994;28;20378;-66
2022/06/26 07:21:26;;;;;;;11.80;6.20;;;20.40;99.90;;;20.71;72.91;101393.56;5095884;28;20541;-66
2022/06/26 07:23:54;;;;;;;8.30;5.78;;;20.40;99.90;;;20.85;73.32;101402.00;5095446;28;20101;-66
2022/06/26 07:26:43;;;;;;;6.88;5.55;;;20.50;99.90;;;20.92;72.46;101408.88;5113442;28;20050;-66
2022/06/26 07:29:11;;;;;;;7.18;5.63;;;20.50;99.90;;;20.89;72.47;101395.53;5095716;28;20056;-67
2022/06/26 07:31:45;;;;;;;9.20;5.70;;;20.60;99.90;;;20.95;72.64;101411.44;5095859;28;20138;-66
2022/06/26 07:34:18;;;;;;;9.88;5.88;;;20.60;99.90;;;21.02;72.41;101399.56;5095850;28;20479;-66
2022/06/26 07:36:49;;;;;;;9.32;5.13;;;20.60;99.90;;;21.07;71.95;101402.94;5095683;28;20043;-66
2022/06/26 07:39:20;;;;;;;9.48;5.82;;;20.70;99.90;;;21.12;71.42;101412.56;5095926;28;20093;-66
2022/06/26 07:41:50;;;;;;;8.55;5.70;;;20.80;99.90;;;21.18;70.88;101411.44;5096152;28;20519;-66
2022/06/26 07:44:19;;;;;;;9.85;5.90;;;20.80;99.90;;;21.30;71.54;101413.66;5095257;28;20044;-66
2022/06/26 07:46:50;;;;;;;7.47;5.72;;;20.90;99.90;;;21.30;70.06;101417.25;5095327;28;20047;-66
2022/06/26 07:49:28;;;;;;;8.85;5.40;;;20.90;99.90;;;21.25;69.62;101416.53;5095479;28;20486;-66
2022/06/26 07:52:04;;;;;;;11.18;5.10;;;21.00;99.90;;;21.45;69.85;101407.66;5095389;28;20039;-66
2022/06/26 07:54:32;;;;;;;8.55;5.50;;;21.10;99.90;;;21.52;68.11;101407.34;5113739;28;20035;-66
2022/06/26 07:57:01;;;;;;;8.32;5.30;;;21.20;99.90;;;21.48;68.62;101412.94;5113765;28;20039;-66
2022/06/26 07:59:29;;;;;;;7.45;5.28;;;21.10;99.90;;;21.54;68.54;101426.16;5113791;28;20545;-66
2022/06/26 08:01:59;;;;;;;9.25;5.70;;;21.20;99.90;;;21.64;68.33;101419.41;5113652;28;20069;-66
2022/06/26 08:04:27;;;;;;;8.45;5.15;;;21.30;99.90;;;21.74;67.78;101423.50;5113251;28;20036;-66
2022/06/26 08:06:56;;;;;;;7.20;5.15;;;21.40;99.90;;;21.58;67.59;101420.56;5095292;28;20121;-66
2022/06/26 08:09:24;;;;;;;9.15;5.10;;;21.40;99.90;;;21.66;68.13;101431.00;5113272;28;20047;-66
2022/06/26 08:11:53;;;;;;;8.70;4.97;;;21.30;99.90;;;21.62;66.81;101424.03;5113479;28;20036;-66
2022/06/26 08:14:21;;;;;;;6.55;4.20;;;21.30;99.90;;;21.89;66.18;101428.28;5113482;28;20451;-65
2022/06/26 08:16:49;;;;;;;8.27;4.60;;;21.50;99.90;;;22.08;66.24;101429.28;5095543;28;20042;-65
2022/06/26 08:19:19;;;;;;;6.57;4.15;;;21.70;99.90;;;22.14;63.25;101426.28;5095174;28;20086;-66
2022/06/26 08:22:02;;;;;;;5.83;4.67;;;21.80;99.90;;;22.28;62.70;101440.06;5113571;28;20130;-65
2022/06/26 08:24:32;;;;;;;5.30;4.53;;;21.90;99.90;;;22.36;62.33;101434.31;5113633;28;20052;-65
2022/06/26 08:27:01;;;;;;;8.33;5.17;;;22.00;99.90;;;22.44;62.99;101430.34;5113454;28;20439;-66
2022/06/26 08:29:30;;;;;;;6.78;4.72;;;22.10;99.90;;;22.56;63.03;101420.84;5113183;28;20328;-66
2022/06/26 08:31:58;;;;;;;6.30;4.57;;;22.20;99.90;;;22.57;62.56;101429.84;5112949;28;20450;-66
2022/06/26 08:34:28;;;;;;;7.03;4.55;;;22.30;99.90;;;22.57;60.54;101432.53;5113204;28;20139;-66
2022/06/26 08:36:57;;;;;;;5.50;4.22;;;22.30;99.90;;;22.64;60.65;101444.81;5117268;28;20044;-66
2022/06/26 08:39:26;;;;;;;6.40;4.10;;;22.30;99.90;;;22.64;57.87;101445.69;5117075;28;20039;-66
2022/06/26 08:41:56;;;;;;;6.20;4.25;;;22.30;99.90;;;22.68;58.19;101451.81;5117520;28;20116;-65
2022/06/26 08:44:25;;;;;;;6.30;3.63;;;22.30;99.90;;;22.64;57.31;101445.69;5117295;28;20036;-66
2022/06/26 08:46:55;;;;;;;6.65;3.88;;;22.30;99.90;;;22.67;57.39;101452.75;5116787;28;20034;-65
2022/06/26 08:49:24;;;;;;;8.13;4.38;;;22.30;99.90;;;22.71;57.53;101447.16;5117210;28;20040;-65
2022/06/26 08:52:00;;;;;;;7.40;4.88;;;22.30;99.90;;;22.74;56.26;101447.03;5117071;28;20058;-66
2022/06/26 08:54:30;;;;;;;11.88;5.30;;;22.40;99.90;;;22.75;58.22;101445.19;5117147;28;20096;-66
2022/06/26 08:56:59;;;;;;;6.45;4.13;;;22.40;99.90;;;22.86;58.83;101440.19;5116859;28;20073;-66
2022/06/26 08:59:28;;;;;;;6.35;4.28;;;22.50;99.90;;;22.97;58.46;101445.97;5116564;28;20040;-66
2022/06/26 09:01:57;;;;;;;7.28;4.20;;;22.60;99.90;;;22.58;57.23;101369.56;5116691;28;20068;-66
2022/06/26 09:04:25;;;;;;;6.88;4.88;;;22.70;99.90;;;23.07;56.94;101444.59;5116895;28;20046;-66
2022/06/26 09:06:54;;;;;;;8.18;5.60;;;22.70;99.90;;;23.13;57.37;101438.91;5116819;28;20455;-66
2022/06/26 09:09:27;;;;;;;5.78;4.45;;;22.80;99.90;;;23.14;57.38;101438.84;5116401;28;20035;-66
2022/06/26 09:11:59;;;;;;;8.38;4.90;;;22.80;99.90;;;23.17;57.48;101448.63;5116468;28;20096;-66
2022/06/26 09:14:30;;;;;;;6.47;4.70;;;22.90;99.90;;;22.78;57.51;101456.75;5116221;28;20035;-65
2022/06/26 09:16:59;;;;;;;8.13;4.65;;;22.70;99.90;;;22.83;59.70;101461.91;5116674;28;20046;-66
2022/06/26 09:19:33;;;;;;;7.20;4.72;;;22.50;99.90;;;22.90;58.88;101456.16;5116431;28;20077;-66
2022/06/26 09:22:08;;;;;;;5.93;4.35;;;22.60;99.90;;;22.81;57.14;101450.31;5116382;28;20546;-66
2022/06/26 09:24:39;;;;;;;6.85;4.35;;;22.50;99.90;;;22.83;55.46;101456.50;5116524;28;20078;-66
2022/06/26 09:27:14;;;;;;;4.30;3.55;;;22.50;99.90;;;22.86;53.88;101456.38;5116214;28;20067;-66
2022/06/26 09:29:49;;;;;;;5.53;3.78;;;22.60;99.90;;;22.98;55.40;101463.91;5116255;28;20052;-66
2022/06/26 09:32:19;;;;;;;6.10;4.32;;;22.60;99.90;;;22.96;53.78;101466.66;5116136;28;20100;-66
2022/06/26 09:34:49;;;;;;;;;;;22.70;99.90;;;22.95;54.60;101477.53;5116577;28;20069;-66
2022/06/26 09:37:19;;;;;;;5.82;4.10;;;22.70;99.90;;;22.80;53.94;101472.84;5116389;28;19920;-66
2022/06/26 09:40:15;;;;;;;5.07;4.50;;;22.60;99.90;;;22.59;55.39;101463.03;5116494;28;20076;-67
2022/06/26 09:42:44;;;;;;;7.05;3.83;;;22.40;99.90;;;22.59;55.26;101453.09;5115882;28;20093;-66
2022/06/26 09:45:12;;;;;;;5.60;4.13;;;22.40;99.90;;;22.78;54.69;101459.44;5116056;28;20401;-66
2022/06/26 09:47:43;;;;;;;5.85;3.88;;;22.50;99.90;;;22.73;54.21;101469.53;5115883;28;20043;-66
2022/06/26 09:50:12;;;;;;;5.85;3.40;;;22.40;99.90;;;22.73;55.43;101476.75;5116028;28;20108;-66
2022/06/26 09:52:43;;;;;;;6.95;3.10;;;22.40;99.90;;;22.71;53.67;101476.81;5116306;28;20070;-66
2022/06/26 09:55:13;;;;;;;9.68;3.90;;;22.40;99.90;;;22.79;53.73;101477.38;5115901;28;20040;-66
2022/06/26 09:57:44;;;;;;;6.40;3.65;;;22.40;99.90;;;22.81;54.47;101474.59;5115635;28;20043;-66
2022/06/26 10:00:12;;;;;;;;;;;22.40;99.90;;;22.85;53.40;101476.19;5116295;28;20443;-66
2022/06/26 10:08:22;;;;;;;6.30;4.10;;;22.50;99.90;;;22.80;55.13;101489.03;5115480;28;20116;-66
2022/06/26 10:10:52;;;;;;;7.57;4.13;;;22.50;99.90;;;22.82;55.42;101492.53;5096880;28;20043;-66
2022/06/26 10:13:28;;;;;;;6.72;3.72;;;22.50;99.90;;;22.58;55.57;101483.72;5115019;28;20462;-66
2022/06/26 10:16:11;;;;;;;7.45;4.07;;;22.30;99.90;;;22.38;54.89;101492.63;5115402;28;20047;-66
2022/06/26 10:19:00;;;;;;;9.43;4.63;;;22.10;99.90;;;22.43;55.81;101487.06;5115578;28;20047;-66
2022/06/26 10:21:35;;;;;;;8.85;4.35;;;22.10;99.90;;;22.44;55.79;101491.50;5114921;28;20108;-66
2022/06/26 10:24:05;;;;;;;5.53;3.67;;;22.10;99.90;;;22.56;56.30;101487.38;5115215;28;20055;-66
2022/06/26 10:26:37;;;;;;;7.97;3.90;;;22.20;99.90;;;22.56;56.21;101480.19;5115339;28;20075;-66
2022/06/26 10:29:07;;;;;;;8.50;4.28;;;22.20;99.90;;;22.70;56.93;101487.69;5114641;28;20613;-66
2022/06/26 10:31:47;;;;;;;6.60;3.88;;;22.30;99.90;;;22.61;55.00;101474.63;5114753;28;20039;-67
2022/06/26 10:34:20;;;;;;;7.07;4.38;;;22.30;99.90;;;22.63;54.88;101475.44;5114811;28;20036;-66
2022/06/26 10:37:01;;;;;;;6.00;4.03;;;22.30;99.90;;;22.61;55.14;101480.03;5114458;28;20043;-66
2022/06/26 10:39:55;;;;;;;5.40;4.20;;;22.20;99.90;;;22.54;54.31;101468.56;5114934;28;20078;-66
2022/06/26 10:45:19;;;;;;;8.18;4.88;;;22.30;99.90;;;22.74;56.17;101475.81;5114629;28;20039;-66